KNKX Airport (Miramar Mcas (Joe Foss Fld)) Information

FAA: NKX - ICAO: KNKX

KNKX Airport Location

State California
County San Diego
City San Diego
KNKX Airport is 3 miles north of San Diego, CA.
Latitude 32-52-06.7043N
Longitude 117-08-35.4782W
Elevation 477ft

KNKX Airport METARs

METAR KNKX 200255Z 00000KT 10SM CLR 12/09 A3003 RMK AO2 SLP166 T01170089 53012 $
Altimeter 30.03"
Temperature 11.7°C (53.1°F)
Wind 0° at 0KT
Clouds Skies are clear.
Visibility 10.0mi
Time observed: 2021-10-20T02:55:00Z

KNKX Airport Details

Status Operational
Activation February 1944
Ownership Military - Navy
Usage Private
Chart LOS ANGELES
ATC on-site Yes
Beacon schedule sunset-sunrise
Beacon color split clear green

KNKX Airport Contacts

Owner US NAVY
Owner address OCEANOGRAPHIC OFC - CODE 3142, WASHINGTON, DC 20373
Owner phone N/A
Manager STUART LYLE
Manager address 7901 FROST STREET, SAN DIEGO, CA 92123-2701
Manager phone 858-939-4457

KNKX Airport (Miramar Mcas (Joe Foss Fld)) Radio Frequencies

KNKX (Airport) Radio Frequencies

UNICOM N/A
Common traffic advisory frequency (CTAF) N/A